createdAt,value
2017-08-01T00:01:23.571Z,4.82
2017-08-01T00:03:52.587Z,6.95
2017-08-01T00:06:20.851Z,5.22
2017-08-01T00:08:49.088Z,10.10
2017-08-01T00:11:17.327Z,7.53
2017-08-01T00:13:45.544Z,4.50
2017-08-01T00:16:13.788Z,6.20
2017-08-01T00:18:42.013Z,4.90
2017-08-01T00:21:11.020Z,5.70
2017-08-01T00:23:40.006Z,6.25
2017-08-01T00:26:09.037Z,4.80
2017-08-01T00:28:37.259Z,7.18
2017-08-01T00:31:05.480Z,4.30
2017-08-01T00:33:33.739Z,6.45
2017-08-01T00:36:01.955Z,7.10
2017-08-01T00:38:30.170Z,5.70
2017-08-01T00:40:59.172Z,7.78
2017-08-01T00:43:27.403Z,6.20
2017-08-01T00:45:55.647Z,7.62
2017-08-01T00:48:23.874Z,11.60
2017-08-01T00:50:52.115Z,7.03
2017-08-01T00:53:20.372Z,5.65
2017-08-01T00:55:48.594Z,8.15
2017-08-01T00:58:16.806Z,8.20
2017-08-01T01:00:45.063Z,7.43
2017-08-01T01:03:13.298Z,5.75
2017-08-01T01:05:41.519Z,6.55
2017-08-01T01:08:09.776Z,11.63
2017-08-01T01:10:38.888Z,7.53
2017-08-01T01:13:07.911Z,9.02
2017-08-01T01:15:36.136Z,6.87
2017-08-01T01:18:04.355Z,8.05
2017-08-01T01:20:32.623Z,7.43
2017-08-01T01:23:00.932Z,8.95
2017-08-01T01:25:29.200Z,6.47
2017-08-01T01:27:57.479Z,8.95
2017-08-01T01:30:25.780Z,5.87
2017-08-01T01:32:54.047Z,7.00
2017-08-01T01:35:22.350Z,6.93
2017-08-01T01:37:50.643Z,5.60
2017-08-01T01:40:18.915Z,5.93
2017-08-01T01:42:47.216Z,8.73
2017-08-01T01:45:15.495Z,6.97
2017-08-01T01:47:43.806Z,7.85
2017-08-01T01:50:12.853Z,9.40
2017-08-01T01:52:41.125Z,7.80
2017-08-01T01:55:09.671Z,11.68
2017-08-01T01:57:38.699Z,6.95
2017-08-01T02:00:07.002Z,6.05
2017-08-01T02:02:35.286Z,6.95
2017-08-01T02:05:03.554Z,7.20
2017-08-01T02:07:31.840Z,8.57
2017-08-01T02:10:00.135Z,8.98
2017-08-01T02:12:29.207Z,6.85
2017-08-01T02:14:57.484Z,10.27
2017-08-01T02:17:25.777Z,6.12
2017-08-01T02:19:54.832Z,11.23
2017-08-01T02:22:23.123Z,6.62
2017-08-01T02:24:51.399Z,6.55
2017-08-01T02:27:19.692Z,6.85
2017-08-01T02:29:47.975Z,8.35
2017-08-01T02:32:17.017Z,7.18
2017-08-01T02:34:45.302Z,6.82
2017-08-01T02:37:13.586Z,5.40
2017-08-01T02:39:41.863Z,7.57
2017-08-01T02:42:10.126Z,5.60
2017-08-01T02:44:38.400Z,5.80
2017-08-01T02:47:06.669Z,9.23
2017-08-01T02:49:34.946Z,5.78
2017-08-01T02:52:03.209Z,7.47
2017-08-01T02:54:31.511Z,6.72
2017-08-01T02:56:59.771Z,6.57
2017-08-01T02:59:28.026Z,5.62
2017-08-01T03:01:56.332Z,5.70
2017-08-01T03:04:24.601Z,6.95
2017-08-01T03:06:52.910Z,8.52
2017-08-01T03:09:21.175Z,8.65
2017-08-01T03:11:49.439Z,7.53
2017-08-01T03:14:17.748Z,7.75
2017-08-01T03:16:46.017Z,4.97
2017-08-01T03:19:14.274Z,6.75
2017-08-01T03:21:42.598Z,8.10
2017-08-01T03:24:10.867Z,11.32
2017-08-01T03:26:39.891Z,7.55
2017-08-01T03:29:08.197Z,7.90
2017-08-01T03:31:36.452Z,5.60
2017-08-01T03:34:04.723Z,5.05
2017-08-01T03:36:33.016Z,8.88
2017-08-01T03:39:01.301Z,9.25
2017-08-01T03:41:29.554Z,5.45
2017-08-01T03:43:57.840Z,8.18
2017-08-01T03:46:26.135Z,6.00
2017-08-01T03:48:54.394Z,7.20
2017-08-01T03:51:22.684Z,7.72
2017-08-01T03:53:50.943Z,8.30
2017-08-01T03:56:19.232Z,8.70
2017-08-01T03:58:47.495Z,6.80
2017-08-01T04:01:15.787Z,7.80
2017-08-01T04:03:44.047Z,8.57
2017-08-01T04:06:12.336Z,5.20
2017-08-01T04:08:40.631Z,6.30
2017-08-01T04:11:09.673Z,6.50
2017-08-01T04:13:37.976Z,5.70
2017-08-01T04:16:06.284Z,6.50
2017-08-01T04:18:35.311Z,6.45
2017-08-01T04:21:03.571Z,7.30
2017-08-01T04:23:31.855Z,8.48
2017-08-01T04:26:00.119Z,7.25
2017-08-01T04:28:28.437Z,9.77
2017-08-01T04:30:56.743Z,9.65
2017-08-01T04:33:25.007Z,10.30
2017-08-01T04:35:53.312Z,10.32
2017-08-01T04:38:22.354Z,11.10
2017-08-01T04:40:50.627Z,11.75
2017-08-01T04:43:18.919Z,9.98
2017-08-01T04:45:47.198Z,11.93
2017-08-01T04:48:16.296Z,13.43
2017-08-01T04:50:45.365Z,14.85
2017-08-01T04:53:13.655Z,15.60
2017-08-01T04:55:41.979Z,16.37
2017-08-01T04:58:10.256Z,19.23
2017-08-01T05:00:38.523Z,17.25
2017-08-01T05:03:06.843Z,14.93
2017-08-01T05:05:35.121Z,15.70
2017-08-01T05:08:03.443Z,13.50
2017-08-01T05:10:32.491Z,12.10
2017-08-01T05:13:00.770Z,16.27
2017-08-01T05:15:29.083Z,12.80
2017-08-01T05:17:57.359Z,12.55
2017-08-01T05:20:25.637Z,11.07
2017-08-01T05:22:54.712Z,17.90
2017-08-01T05:25:23.067Z,13.73
2017-08-01T05:27:51.353Z,15.18
2017-08-01T05:30:19.627Z,17.42
2017-08-01T05:32:47.933Z,14.95
2017-08-01T05:35:17.031Z,18.98
2017-08-01T05:37:46.089Z,17.87
2017-08-01T05:40:14.360Z,18.65
2017-08-01T05:42:42.658Z,16.35
2017-08-01T05:45:10.936Z,16.92
2017-08-01T05:47:39.227Z,17.05
2017-08-01T05:50:08.276Z,17.80
2017-08-01T05:52:36.587Z,16.40
2017-08-01T05:55:05.633Z,14.77
2017-08-01T05:57:33.919Z,15.27
2017-08-01T06:00:02.215Z,17.00
2017-08-01T06:02:30.516Z,14.38
2017-08-01T06:04:59.579Z,13.95
2017-08-01T06:07:27.885Z,13.27
2017-08-01T06:09:56.160Z,14.27
2017-08-01T06:12:24.482Z,12.43
2017-08-01T06:14:52.767Z,12.60
2017-08-01T06:17:21.043Z,13.48
2017-08-01T06:19:49.350Z,11.80
2017-08-01T06:22:17.663Z,12.80
2017-08-01T06:24:45.940Z,13.88
2017-08-01T06:27:14.233Z,13.32
2017-08-01T06:29:42.538Z,9.50
2017-08-01T06:32:10.804Z,9.85
2017-08-01T06:34:39.076Z,8.52
2017-08-01T06:37:07.371Z,8.95
2017-08-01T06:39:35.656Z,9.02
2017-08-01T06:42:03.923Z,13.57
2017-08-01T06:44:32.212Z,7.00
2017-08-01T06:47:00.529Z,11.20
2017-08-01T06:49:28.792Z,8.90
2017-08-01T06:51:57.062Z,9.70
2017-08-01T06:54:25.383Z,10.60
2017-08-01T06:56:53.652Z,7.57
2017-08-01T06:59:21.947Z,7.28
2017-08-01T07:01:50.231Z,6.40
2017-08-01T07:04:18.758Z,10.10
2017-08-01T07:06:47.058Z,10.00
2017-08-01T07:09:15.356Z,10.88
2017-08-01T07:11:44.801Z,7.25
2017-08-01T07:14:13.055Z,8.48
2017-08-01T07:16:41.360Z,10.27
2017-08-01T07:19:09.638Z,11.27
2017-08-01T07:21:37.903Z,8.88
2017-08-01T07:24:06.167Z,6.95
2017-08-01T07:26:34.799Z,7.18
2017-08-01T07:29:03.091Z,7.12
2017-08-01T07:31:31.627Z,8.15
2017-08-01T07:34:00.661Z,7.90
2017-08-01T07:36:28.955Z,9.18
2017-08-01T07:38:57.223Z,6.93
2017-08-01T07:41:25.503Z,5.53
2017-08-01T07:43:53.812Z,6.03
2017-08-01T07:46:22.863Z,7.18
2017-08-01T07:48:51.160Z,6.80
2017-08-01T07:51:19.431Z,5.12
2017-08-01T07:53:47.703Z,6.57
2017-08-01T07:56:16.046Z,6.35
2017-08-01T07:58:44.315Z,5.00
2017-08-01T08:01:12.580Z,8.48
2017-08-01T08:03:40.888Z,6.57
2017-08-01T08:06:09.148Z,5.45
2017-08-01T08:08:37.415Z,7.10
2017-08-01T08:11:05.711Z,6.70
2017-08-01T08:13:33.980Z,4.80
2017-08-01T08:16:02.315Z,6.35
2017-08-01T08:18:31.375Z,5.30
2017-08-01T08:20:59.639Z,6.03
2017-08-01T08:23:27.899Z,7.05
2017-08-01T08:25:56.183Z,7.18
2017-08-01T08:28:24.467Z,4.40
2017-08-01T08:30:52.757Z,6.25
2017-08-01T08:33:21.015Z,5.80
2017-08-01T08:35:49.311Z,8.30
2017-08-01T08:38:17.572Z,7.35
2017-08-01T08:40:45.840Z,6.18
2017-08-01T08:43:14.124Z,5.20
2017-08-01T08:45:42.411Z,6.55
2017-08-01T08:48:10.672Z,5.60
2017-08-01T08:50:38.932Z,5.72
2017-08-01T08:53:07.216Z,5.18
2017-08-01T08:55:35.507Z,7.15
2017-08-01T08:58:03.771Z,5.55
2017-08-01T09:00:32.036Z,5.32
2017-08-01T09:03:00.352Z,7.18
2017-08-01T09:05:28.636Z,5.97
2017-08-01T09:07:56.895Z,6.75
2017-08-01T09:10:25.182Z,5.57
2017-08-01T09:12:53.442Z,5.60
2017-08-01T09:15:21.732Z,5.65
2017-08-01T09:17:49.991Z,5.28
2017-08-01T09:20:18.279Z,6.85
2017-08-01T09:22:46.563Z,7.65
2017-08-01T09:25:14.840Z,6.00
2017-08-01T09:27:43.127Z,8.02
2017-08-01T09:30:12.180Z,5.40
2017-08-01T09:32:40.439Z,5.55
2017-08-01T09:35:08.723Z,6.35
2017-08-01T09:37:36.995Z,4.97
2017-08-01T09:40:05.306Z,5.07
2017-08-01T09:42:33.567Z,4.72
2017-08-01T09:45:01.839Z,8.57
2017-08-01T09:47:30.148Z,7.40
2017-08-01T09:49:58.414Z,5.25
2017-08-01T09:52:26.724Z,7.18
2017-08-01T09:54:54.999Z,5.93
2017-08-01T09:57:23.262Z,6.82
2017-08-01T09:59:52.323Z,6.03
2017-08-01T10:02:20.585Z,5.68
2017-08-01T10:04:48.873Z,5.65
2017-08-01T10:07:17.147Z,5.68
2017-08-01T10:09:45.436Z,5.57
2017-08-01T10:12:13.724Z,5.75
2017-08-01T10:14:42.011Z,5.90
2017-08-01T10:17:11.035Z,5.15
2017-08-01T10:19:39.332Z,7.20
2017-08-01T10:22:07.592Z,5.03
2017-08-01T10:24:35.855Z,4.40
2017-08-01T10:27:04.139Z,6.45
2017-08-01T10:29:32.396Z,5.03
2017-08-01T10:32:00.692Z,5.07
2017-08-01T10:34:28.955Z,5.30
2017-08-01T10:36:57.220Z,6.15
2017-08-01T10:39:25.511Z,5.95
2017-08-01T10:41:53.829Z,5.47
2017-08-01T10:44:22.115Z,5.97
2017-08-01T10:46:50.391Z,5.15
2017-08-01T10:49:18.659Z,4.90
2017-08-01T10:51:46.965Z,7.55
2017-08-01T10:54:15.987Z,5.18
2017-08-01T10:56:44.249Z,4.87
2017-08-01T10:59:12.535Z,4.65
2017-08-01T11:01:40.885Z,4.65
2017-08-01T11:04:09.916Z,6.97
2017-08-01T11:06:38.207Z,4.85
2017-08-01T11:09:06.491Z,5.30
2017-08-01T11:11:34.751Z,4.97
2017-08-01T11:14:03.015Z,6.12
2017-08-01T11:16:31.303Z,6.68
2017-08-01T11:18:59.568Z,4.37
2017-08-01T11:21:27.857Z,7.05
2017-08-01T11:23:56.131Z,4.00
2017-08-01T11:26:24.427Z,5.50
2017-08-01T11:28:52.696Z,7.20
2017-08-01T11:31:20.959Z,4.47
2017-08-01T11:33:49.243Z,4.12
2017-08-01T11:36:17.506Z,4.20
2017-08-01T11:38:45.791Z,4.37
2017-08-01T11:41:14.364Z,5.57
2017-08-01T11:43:42.628Z,4.43
2017-08-01T11:46:10.894Z,7.18
2017-08-01T11:48:39.175Z,4.18
2017-08-01T11:51:07.452Z,6.47
2017-08-01T11:53:35.730Z,5.18
2017-08-01T11:56:04.027Z,4.53
2017-08-01T11:58:32.332Z,4.12
2017-08-01T12:01:00.595Z,5.32
2017-08-01T12:03:28.855Z,4.10
2017-08-01T12:05:57.137Z,4.35
2017-08-01T12:08:25.417Z,4.35
2017-08-01T12:10:53.698Z,6.00
2017-08-01T12:13:21.968Z,4.80
2017-08-01T12:15:50.256Z,6.00
2017-08-01T12:18:18.523Z,5.15
2017-08-01T12:20:46.780Z,5.30
2017-08-01T12:23:13.738Z,5.87
2017-08-01T12:25:40.071Z,4.82
2017-08-01T12:28:06.411Z,6.05
2017-08-01T12:30:32.704Z,5.35
2017-08-01T12:32:59.039Z,6.35
2017-08-01T12:35:26.075Z,5.97
2017-08-01T12:37:52.378Z,6.70
2017-08-01T12:40:18.769Z,6.50
2017-08-01T12:42:45.076Z,4.85
2017-08-01T12:45:12.111Z,5.45
2017-08-01T12:47:38.442Z,5.15
2017-08-01T12:50:04.784Z,7.53
2017-08-01T12:52:31.820Z,7.90
2017-08-01T12:54:58.150Z,5.40
2017-08-01T12:57:25.247Z,5.87
2017-08-01T12:59:51.552Z,4.95
2017-08-01T13:02:17.855Z,7.68
2017-08-01T13:04:44.168Z,5.05
2017-08-01T13:07:10.507Z,5.65
2017-08-01T13:09:36.821Z,6.37
2017-08-01T13:12:03.107Z,5.10
2017-08-01T13:14:29.440Z,6.93
2017-08-01T13:16:55.732Z,9.63
2017-08-01T13:19:22.323Z,6.05
2017-08-01T13:21:48.662Z,5.37
2017-08-01T13:24:14.959Z,4.45
2017-08-01T13:26:41.299Z,5.72
2017-08-01T13:29:07.644Z,10.07
2017-08-01T13:31:33.971Z,5.93
2017-08-01T13:34:00.264Z,5.30
2017-08-01T13:36:26.582Z,4.95
2017-08-01T13:38:53.624Z,4.60
2017-08-01T13:41:19.960Z,6.82
2017-08-01T13:43:47.025Z,5.00
2017-08-01T13:46:13.340Z,4.85
2017-08-01T13:48:40.404Z,5.82
2017-08-01T13:51:06.760Z,6.95
2017-08-01T13:53:33.071Z,6.32
2017-08-01T13:55:59.381Z,5.82
2017-08-01T13:58:25.727Z,5.87
2017-08-01T14:00:52.059Z,7.47
2017-08-01T14:03:18.416Z,4.62
2017-08-01T14:05:44.792Z,8.02
2017-08-01T14:08:11.856Z,6.40
2017-08-01T14:10:38.240Z,5.55
2017-08-01T14:13:04.584Z,6.50
2017-08-01T14:15:30.899Z,6.62
2017-08-01T14:17:57.231Z,6.12
2017-08-01T14:20:23.536Z,6.43
2017-08-01T14:22:49.893Z,8.13
2017-08-01T14:25:16.227Z,8.38
2017-08-01T14:27:43.629Z,9.30
2017-08-01T14:30:09.975Z,6.50
2017-08-01T14:32:36.294Z,5.28
2017-08-01T14:35:02.603Z,6.00
2017-08-01T14:37:29.664Z,5.37
2017-08-01T14:39:55.973Z,7.28
2017-08-01T14:42:22.335Z,6.53
2017-08-01T14:44:48.628Z,5.82
2017-08-01T14:47:15.012Z,8.57
2017-08-01T14:49:41.316Z,6.25
2017-08-01T14:52:07.628Z,7.62
2017-08-01T14:54:34.696Z,8.15
2017-08-01T14:57:01.031Z,5.12
2017-08-01T14:59:27.367Z,5.25
2017-08-01T15:01:53.680Z,8.57
2017-08-01T15:04:20.023Z,5.70
2017-08-01T15:06:46.351Z,7.30
2017-08-01T15:09:12.745Z,5.50
2017-08-01T15:11:39.395Z,7.55
2017-08-01T15:14:06.439Z,5.90
2017-08-01T15:16:33.487Z,5.00
2017-08-01T15:19:00.551Z,4.85
2017-08-01T15:21:26.860Z,6.65
2017-08-01T15:23:53.163Z,12.70
2017-08-01T15:26:19.500Z,6.28
2017-08-01T15:28:45.800Z,6.30
2017-08-01T15:31:12.128Z,7.05
2017-08-01T15:33:38.435Z,5.37
2017-08-01T15:36:04.771Z,7.15
2017-08-01T15:38:31.083Z,5.97
2017-08-01T15:40:57.427Z,5.80
2017-08-01T15:43:23.756Z,6.00
2017-08-01T15:45:50.083Z,7.00
2017-08-01T15:48:16.412Z,8.35
2017-08-01T15:50:42.728Z,5.80
2017-08-01T15:53:09.055Z,9.45
2017-08-01T15:55:36.160Z,6.32
2017-08-01T15:58:02.485Z,10.93
2017-08-01T16:00:28.849Z,6.85
2017-08-01T16:02:55.212Z,7.80
2017-08-01T16:05:21.503Z,8.05
2017-08-01T16:07:47.823Z,6.15
2017-08-01T16:10:14.168Z,6.90
2017-08-01T16:12:40.460Z,9.23
2017-08-01T16:15:06.758Z,8.55
2017-08-01T16:17:33.128Z,8.70
2017-08-01T16:19:59.468Z,7.37
2017-08-01T16:22:25.859Z,7.28
2017-08-01T16:24:52.169Z,6.43
2017-08-01T16:27:18.515Z,7.28
2017-08-01T16:29:44.845Z,7.57
2017-08-01T16:32:11.160Z,6.47
2017-08-01T16:34:37.508Z,6.47
2017-08-01T16:37:03.804Z,24.42
2017-08-01T16:39:30.864Z,13.02
2017-08-01T16:41:57.215Z,12.90
2017-08-01T16:44:23.523Z,9.20
2017-08-01T16:46:50.555Z,7.62
2017-08-01T16:49:17.707Z,8.15
2017-08-01T16:51:44.183Z,10.10
2017-08-01T16:54:10.543Z,11.30
2017-08-01T16:56:36.838Z,7.00
2017-08-01T16:59:03.216Z,7.78
2017-08-01T17:01:29.515Z,7.93
2017-08-01T17:03:55.805Z,13.20
2017-08-01T17:06:22.096Z,7.82
2017-08-01T17:08:48.435Z,9.55
2017-08-01T17:11:14.756Z,8.25
2017-08-01T17:13:41.065Z,6.70
2017-08-01T17:16:07.380Z,6.45
2017-08-01T17:18:33.700Z,6.57
2017-08-01T17:20:59.999Z,6.07
2017-08-01T17:23:27.048Z,6.20
2017-08-01T17:25:54.123Z,6.40
2017-08-01T17:28:20.507Z,6.62
2017-08-01T17:30:46.812Z,9.50
2017-08-01T17:33:13.179Z,10.45
2017-08-01T17:35:40.228Z,5.43
2017-08-01T17:38:07.273Z,7.85
2017-08-01T17:40:33.615Z,10.88
2017-08-01T17:42:59.937Z,5.53
2017-08-01T17:45:27.059Z,6.05
2017-08-01T17:47:53.438Z,7.75
2017-08-01T17:50:19.803Z,8.32
2017-08-01T17:52:46.129Z,7.35
2017-08-01T17:55:12.457Z,12.18
2017-08-01T17:57:38.852Z,7.62
2017-08-01T18:00:05.476Z,6.72
2017-08-01T18:02:31.821Z,8.27
2017-08-01T18:04:58.208Z,5.70
2017-08-01T18:07:24.559Z,5.05
2017-08-01T18:09:51.712Z,7.18
2017-08-01T18:12:18.762Z,5.37
2017-08-01T18:14:45.094Z,7.87
2017-08-01T18:17:12.135Z,6.70
2017-08-01T18:19:38.447Z,6.90
2017-08-01T18:22:04.805Z,6.03
2017-08-01T18:24:31.143Z,5.78
2017-08-01T18:26:57.468Z,6.10
2017-08-01T18:29:23.814Z,6.40
2017-08-01T18:31:50.140Z,7.65
2017-08-01T18:34:16.492Z,5.82
2017-08-01T18:36:42.796Z,5.68
2017-08-01T18:39:09.314Z,5.68
2017-08-01T18:41:35.802Z,5.90
2017-08-01T18:44:02.149Z,4.85
2017-08-01T18:46:29.268Z,6.32
2017-08-01T18:48:55.671Z,5.70
2017-08-01T18:51:22.220Z,5.60
2017-08-01T18:53:48.833Z,6.15
2017-08-01T18:56:15.216Z,5.50
2017-08-01T18:58:41.545Z,5.70
2017-08-01T19:01:07.861Z,6.40
2017-08-01T19:03:34.486Z,8.20
2017-08-01T19:06:00.860Z,6.85
2017-08-01T19:08:27.180Z,6.60
2017-08-01T19:10:53.477Z,7.22
2017-08-01T19:13:20.068Z,15.80
2017-08-01T19:15:46.727Z,13.35
2017-08-01T19:18:13.410Z,17.40
2017-08-01T19:20:40.510Z,10.57
2017-08-01T19:23:07.880Z,10.18
2017-08-01T19:25:34.454Z,9.25
2017-08-01T19:28:01.104Z,4.12
2017-08-01T19:30:27.517Z,3.92
2017-08-01T19:32:54.108Z,4.47
2017-08-01T19:35:20.767Z,4.25
2017-08-01T19:37:47.138Z,4.18
2017-08-01T19:40:14.073Z,3.37
2017-08-01T19:42:40.487Z,3.35
2017-08-01T19:45:06.800Z,3.37
2017-08-01T19:47:33.159Z,4.15
2017-08-01T19:49:59.505Z,4.28
2017-08-01T19:52:26.117Z,3.33
2017-08-01T19:54:52.522Z,3.55
2017-08-01T19:57:19.116Z,4.68
2017-08-01T19:59:46.363Z,7.05
2017-08-01T20:02:12.984Z,4.12
2017-08-01T20:04:40.078Z,5.10
2017-08-01T20:07:06.685Z,3.95
2017-08-01T20:09:33.472Z,3.87
2017-08-01T20:12:00.163Z,3.97
2017-08-01T20:14:26.848Z,3.42
2017-08-01T20:16:53.232Z,4.18
2017-08-01T20:19:20.497Z,4.35
2017-08-01T20:21:46.855Z,2.70
2017-08-01T20:24:13.168Z,3.72
2017-08-01T20:26:40.417Z,2.90
2017-08-01T20:29:06.772Z,3.33
2017-08-01T20:31:33.124Z,4.65
2017-08-01T20:33:59.444Z,3.90
2017-08-01T20:36:25.756Z,3.58
2017-08-01T20:38:52.092Z,3.30
2017-08-01T20:41:18.411Z,3.87
2017-08-01T20:43:45.483Z,4.12
2017-08-01T20:46:11.779Z,3.47
2017-08-01T20:48:38.911Z,3.50
2017-08-01T20:51:05.236Z,3.00
2017-08-01T20:53:31.545Z,3.78
2017-08-01T20:55:57.896Z,3.50
2017-08-01T20:58:24.208Z,3.72
2017-08-01T21:00:50.507Z,3.33
2017-08-01T21:03:16.884Z,3.30
2017-08-01T21:05:43.201Z,3.42
2017-08-01T21:08:09.501Z,3.33
2017-08-01T21:10:35.852Z,3.85
2017-08-01T21:13:02.155Z,4.62
2017-08-01T21:15:28.519Z,3.17
2017-08-01T21:17:54.899Z,3.03
2017-08-01T21:20:21.201Z,2.80
2017-08-01T21:22:47.506Z,2.80
2017-08-01T21:25:13.835Z,3.42
2017-08-01T21:27:40.173Z,3.30
2017-08-01T21:30:06.475Z,2.78
2017-08-01T21:32:32.799Z,3.20
2017-08-01T21:34:59.199Z,2.95
2017-08-01T21:37:25.497Z,2.97
2017-08-01T21:39:51.829Z,2.90
2017-08-01T21:42:18.166Z,3.80
2017-08-01T21:44:44.465Z,3.80
2017-08-01T21:47:10.770Z,2.75
2017-08-01T21:49:37.083Z,3.28
2017-08-01T21:52:04.103Z,3.10
2017-08-01T21:54:30.424Z,3.65
2017-08-01T21:56:56.735Z,3.70
2017-08-01T21:59:23.028Z,2.90
2017-08-01T22:01:49.436Z,3.05
2017-08-01T22:04:16.494Z,3.30
2017-08-01T22:06:42.791Z,2.75
2017-08-01T22:09:09.935Z,3.87
2017-08-01T22:11:36.233Z,4.53
2017-08-01T22:14:02.575Z,6.12
2017-08-01T22:16:28.912Z,3.45
2017-08-01T22:18:55.339Z,2.55
2017-08-01T22:21:21.651Z,4.07
2017-08-01T22:23:47.978Z,2.95
2017-08-01T22:26:14.319Z,2.85
2017-08-01T22:28:40.627Z,3.70
2017-08-01T22:31:07.004Z,3.40
2017-08-01T22:33:33.413Z,4.93
2017-08-01T22:35:59.748Z,2.80
2017-08-01T22:38:26.052Z,2.90
2017-08-01T22:40:52.343Z,3.67
2017-08-01T22:43:18.677Z,2.95
2017-08-01T22:45:45.709Z,3.37
2017-08-01T22:48:12.048Z,4.47
2017-08-01T22:50:39.122Z,5.40
2017-08-01T22:53:06.199Z,6.80
2017-08-01T22:55:32.483Z,6.10
2017-08-01T22:57:59.582Z,5.40
2017-08-01T23:00:25.979Z,8.63
2017-08-01T23:02:52.296Z,6.72
2017-08-01T23:05:19.334Z,6.80
2017-08-01T23:07:46.415Z,7.10
2017-08-01T23:10:12.745Z,7.28
2017-08-01T23:12:39.064Z,7.10
2017-08-01T23:15:06.416Z,6.68
2017-08-01T23:17:32.747Z,7.25
2017-08-01T23:19:59.084Z,7.53
2017-08-01T23:22:25.427Z,8.37
2017-08-01T23:24:51.811Z,8.07
2017-08-01T23:27:18.869Z,7.75
2017-08-01T23:29:45.173Z,7.70
2017-08-01T23:32:11.541Z,8.55
2017-08-01T23:34:37.848Z,7.25
2017-08-01T23:37:04.175Z,7.40
2017-08-01T23:39:30.535Z,5.85
2017-08-01T23:41:57.060Z,5.70
2017-08-01T23:44:24.104Z,7.55
2017-08-01T23:46:51.143Z,5.80
2017-08-01T23:49:18.224Z,6.43
2017-08-01T23:51:44.535Z,7.03
2017-08-01T23:54:10.893Z,5.78
2017-08-01T23:56:38.127Z,5.70
2017-08-01T23:59:04.437Z,5.85
